createdAt,value
2022-09-10T00:01:43.475Z,17.23
2022-09-10T00:04:16.150Z,18.30
2022-09-10T00:06:47.555Z,15.90
2022-09-10T00:09:18.306Z,14.90
2022-09-10T00:11:49.100Z,15.60
2022-09-10T00:14:25.326Z,14.30
2022-09-10T00:16:58.351Z,14.70
2022-09-10T00:19:30.961Z,14.10
2022-09-10T00:22:01.876Z,12.80
2022-09-10T00:24:34.585Z,11.97
2022-09-10T00:27:05.354Z,11.10
2022-09-10T00:29:36.131Z,10.70
2022-09-10T00:32:09.154Z,9.83
2022-09-10T00:34:39.886Z,8.87
2022-09-10T00:37:10.666Z,8.13
2022-09-10T00:39:41.486Z,6.60
2022-09-10T00:42:15.572Z,6.53
2022-09-10T00:45:02.993Z,5.83
2022-09-10T00:47:38.663Z,5.20
2022-09-10T00:50:18.711Z,5.13
2022-09-10T00:52:49.777Z,4.90
2022-09-10T00:55:21.528Z,4.63
2022-09-10T00:57:55.561Z,4.37
2022-09-10T01:00:26.878Z,5.00
2022-09-10T01:02:59.453Z,3.90
2022-09-10T01:05:30.591Z,3.83
2022-09-10T01:08:02.119Z,4.00
2022-09-10T01:10:38.485Z,3.20
2022-09-10T01:13:24.212Z,3.00
2022-09-10T01:16:03.871Z,2.97
2022-09-10T01:18:45.828Z,3.13
2022-09-10T01:21:26.487Z,2.30
2022-09-10T01:24:26.474Z,2.50
2022-09-10T01:27:28.969Z,2.60
2022-09-10T01:30:06.539Z,2.20
2022-09-10T01:32:46.964Z,2.20
2022-09-10T01:35:20.590Z,2.17
2022-09-10T01:37:55.803Z,2.40
2022-09-10T01:40:30.589Z,2.43
2022-09-10T01:43:03.662Z,2.47
2022-09-10T01:45:41.325Z,2.07
2022-09-10T01:48:37.756Z,2.73
2022-09-10T01:51:15.999Z,2.13
2022-09-10T01:54:01.063Z,2.00
2022-09-10T01:56:43.003Z,1.87
2022-09-10T01:59:26.942Z,1.50
2022-09-10T02:02:10.454Z,1.80
2022-09-10T02:04:42.472Z,1.97
2022-09-10T02:07:16.649Z,1.80
2022-09-10T02:09:47.977Z,2.20
2022-09-10T02:12:22.244Z,2.10
2022-09-10T02:14:54.885Z,1.77
2022-09-10T02:17:31.973Z,1.50
2022-09-10T02:20:04.580Z,1.50
2022-09-10T02:22:38.514Z,1.60
2022-09-10T02:25:10.698Z,1.87
2022-09-10T02:27:41.761Z,1.43
2022-09-10T02:30:13.517Z,2.43
2022-09-10T02:32:46.059Z,1.90
2022-09-10T02:35:17.431Z,2.13
2022-09-10T02:37:48.698Z,2.60
2022-09-10T02:40:20.293Z,1.37
2022-09-10T02:42:51.079Z,1.70
2022-09-10T02:45:21.880Z,1.40
2022-09-10T02:47:54.440Z,1.40
2022-09-10T02:50:25.581Z,1.57
2022-09-10T02:52:56.321Z,1.70
2022-09-10T02:55:27.101Z,1.37
2022-09-10T02:57:57.859Z,1.63
2022-09-10T03:00:28.624Z,1.30
2022-09-10T03:03:03.079Z,1.50
2022-09-10T03:05:35.122Z,1.40
2022-09-10T03:08:06.194Z,1.20
2022-09-10T03:10:36.964Z,1.60
2022-09-10T03:13:07.745Z,1.50
2022-09-10T03:15:39.082Z,1.43
2022-09-10T03:18:11.632Z,1.53
2022-09-10T03:20:42.676Z,1.40
2022-09-10T03:23:13.416Z,1.60
2022-09-10T03:25:46.906Z,1.37
2022-09-10T03:28:20.458Z,1.30
2022-09-10T03:30:51.238Z,1.47
2022-09-10T03:33:23.698Z,1.70
2022-09-10T03:35:56.885Z,1.20
2022-09-10T03:38:28.531Z,1.40
2022-09-10T03:40:59.507Z,1.73
2022-09-10T03:43:30.265Z,1.47
2022-09-10T03:46:02.077Z,1.33
2022-09-10T03:48:34.587Z,1.80
2022-09-10T03:51:05.449Z,1.50
2022-09-10T03:53:36.183Z,1.70
2022-09-10T03:56:06.986Z,2.03
2022-09-10T03:58:38.212Z,1.83
2022-09-10T04:01:09.483Z,2.00
2022-09-10T04:03:42.108Z,2.17
2022-09-10T04:06:13.691Z,2.33
2022-09-10T04:08:44.905Z,2.10
2022-09-10T04:11:16.036Z,2.50
2022-09-10T04:13:47.917Z,1.93
2022-09-10T04:16:19.575Z,2.10
2022-09-10T04:18:51.994Z,2.87
2022-09-10T04:21:24.994Z,2.53
2022-09-10T04:23:57.822Z,2.60
2022-09-10T04:26:28.667Z,2.63
2022-09-10T04:28:59.441Z,2.27
2022-09-10T04:31:30.304Z,2.53
2022-09-10T04:34:02.872Z,2.50
2022-09-10T04:36:33.655Z,2.87
2022-09-10T04:39:04.386Z,2.87
2022-09-10T04:41:35.265Z,3.20
2022-09-10T04:44:06.226Z,3.23
2022-09-10T04:46:37.110Z,2.80
2022-09-10T04:49:09.645Z,3.30
2022-09-10T04:51:40.429Z,3.13
2022-09-10T04:54:11.223Z,2.77
2022-09-10T04:56:41.981Z,3.03
2022-09-10T04:59:13.197Z,3.80
2022-09-10T05:01:44.021Z,3.73
2022-09-10T05:04:16.397Z,3.23
2022-09-10T05:06:48.354Z,3.20
2022-09-10T05:09:19.112Z,3.87
2022-09-10T05:11:50.638Z,4.10
2022-09-10T05:14:21.390Z,3.60
2022-09-10T05:16:52.306Z,3.67
2022-09-10T05:19:24.884Z,3.90
2022-09-10T05:21:55.675Z,3.83
2022-09-10T05:24:26.668Z,4.40
2022-09-10T05:26:57.762Z,4.57
2022-09-10T05:29:28.579Z,4.80
2022-09-10T05:31:59.369Z,4.60
2022-09-10T05:34:31.763Z,4.83
2022-09-10T05:37:02.758Z,5.40
2022-09-10T05:39:33.538Z,4.60
2022-09-10T05:42:04.728Z,6.33
2022-09-10T05:44:35.569Z,6.00
2022-09-10T05:47:06.382Z,5.73
2022-09-10T05:49:38.905Z,5.53
2022-09-10T05:52:10.355Z,6.07
2022-09-10T05:54:42.133Z,7.30
2022-09-10T05:57:12.853Z,6.57
2022-09-10T05:59:43.620Z,6.33
2022-09-10T06:02:23.764Z,6.93
2022-09-10T06:04:56.714Z,7.53
2022-09-10T06:07:27.486Z,8.00
2022-09-10T06:09:58.424Z,7.43
2022-09-10T06:12:29.204Z,8.50
2022-09-10T06:15:00.018Z,9.00
2022-09-10T06:17:30.741Z,9.30
2022-09-10T06:20:03.134Z,8.57
2022-09-10T06:22:33.921Z,8.30
2022-09-10T06:25:04.888Z,8.53
2022-09-10T06:27:35.726Z,7.70
2022-09-10T06:30:06.817Z,8.50
2022-09-10T06:32:40.028Z,8.37
2022-09-10T06:35:13.045Z,9.17
2022-09-10T06:37:45.846Z,8.03
2022-09-10T06:40:16.686Z,8.90
2022-09-10T06:42:47.452Z,9.13
2022-09-10T06:45:18.285Z,8.97
2022-09-10T06:48:51.629Z,9.00
2022-09-10T06:50:42.521Z,9.60
2022-09-10T06:53:13.254Z,8.23
2022-09-10T06:55:43.988Z,9.00
2022-09-10T06:58:16.763Z,8.33
2022-09-10T07:00:48.571Z,8.67
2022-09-10T07:03:20.321Z,8.47
2022-09-10T07:05:53.133Z,8.67
2022-09-10T07:08:23.869Z,8.07
2022-09-10T07:10:54.917Z,9.10
2022-09-10T07:13:26.632Z,8.90
2022-09-10T07:15:57.520Z,8.10
2022-09-10T07:18:29.592Z,8.60
2022-09-10T07:21:10.773Z,7.90
2022-09-10T07:23:42.135Z,9.50
2022-09-10T07:26:15.055Z,8.37
2022-09-10T07:28:46.255Z,9.53
2022-09-10T07:31:20.017Z,9.73
2022-09-10T07:33:51.653Z,8.67
2022-09-10T07:36:24.136Z,9.10
2022-09-10T07:38:56.567Z,8.43
2022-09-10T07:41:30.699Z,8.83
2022-09-10T07:44:01.625Z,9.43
2022-09-10T07:46:32.346Z,9.17
2022-09-10T07:49:03.688Z,9.13
2022-09-10T07:51:37.926Z,8.53
2022-09-10T07:54:09.058Z,9.40
2022-09-10T07:56:39.821Z,9.70
2022-09-10T07:59:10.586Z,8.87
2022-09-10T08:01:41.400Z,9.13
2022-09-10T08:04:12.298Z,9.37
2022-09-10T08:06:44.882Z,8.50
2022-09-10T08:09:16.019Z,8.47
2022-09-10T08:11:46.763Z,9.20
2022-09-10T08:14:17.511Z,9.13
2022-09-10T08:16:48.237Z,8.50
2022-09-10T08:19:19.126Z,9.67
2022-09-10T08:21:51.528Z,8.67
2022-09-10T08:24:22.385Z,8.50
2022-09-10T08:26:53.513Z,10.00
2022-09-10T08:29:24.259Z,9.13
2022-09-10T08:31:55.032Z,8.10
2022-09-10T08:34:27.114Z,8.33
2022-09-10T08:37:00.330Z,8.87
2022-09-10T08:39:31.855Z,9.50
2022-09-10T08:42:06.426Z,9.07
2022-09-10T08:44:43.380Z,8.20
2022-09-10T08:47:25.480Z,9.63
2022-09-10T08:49:59.181Z,8.07
2022-09-10T08:52:36.083Z,9.07
2022-09-10T08:55:18.575Z,10.00
2022-09-10T08:57:53.078Z,8.53
2022-09-10T09:00:26.552Z,8.60
2022-09-10T09:03:03.781Z,8.57
2022-09-10T09:05:46.214Z,9.00
2022-09-10T09:08:20.457Z,8.37
2022-09-10T09:10:55.357Z,8.13
2022-09-10T09:13:57.768Z,8.37
2022-09-10T09:16:54.370Z,9.30
2022-09-10T09:19:34.772Z,8.73
2022-09-10T09:22:14.569Z,9.33
2022-09-10T09:24:56.643Z,9.23
2022-09-10T09:27:32.901Z,8.87
2022-09-10T09:30:06.838Z,8.73
2022-09-10T09:32:39.874Z,8.50
2022-09-10T09:35:24.976Z,8.70
2022-09-10T09:38:06.624Z,9.93
2022-09-10T09:40:47.497Z,9.30
2022-09-10T09:43:27.377Z,8.53
2022-09-10T09:45:58.252Z,8.83
2022-09-10T09:48:32.226Z,8.90
2022-09-10T09:51:02.959Z,8.80
2022-09-10T09:53:34.054Z,9.20
2022-09-10T09:56:09.742Z,8.53
2022-09-10T09:58:41.288Z,8.77
2022-09-10T10:01:17.067Z,8.57
2022-09-10T10:03:53.111Z,9.50
2022-09-10T10:06:27.106Z,8.80
2022-09-10T10:09:01.841Z,10.03
2022-09-10T10:11:50.578Z,10.20
2022-09-10T10:14:42.233Z,9.47
2022-09-10T10:17:40.192Z,10.70
2022-09-10T10:20:13.825Z,9.70
2022-09-10T10:22:46.198Z,10.53
2022-09-10T10:25:41.465Z,10.60
2022-09-10T10:28:23.857Z,10.50
2022-09-10T10:30:57.236Z,10.90
2022-09-10T10:33:31.566Z,11.43
2022-09-10T10:36:13.250Z,10.40
2022-09-10T10:38:48.906Z,11.50
2022-09-10T10:41:50.466Z,12.20
2022-09-10T10:44:37.764Z,12.47
2022-09-10T10:47:26.407Z,12.13
2022-09-10T10:50:05.501Z,12.50
2022-09-10T10:52:45.314Z,12.47
2022-09-10T10:55:24.138Z,13.97
2022-09-10T10:58:22.523Z,13.33
2022-09-10T11:01:00.470Z,13.77
2022-09-10T11:03:37.894Z,13.23
2022-09-10T11:06:14.059Z,13.67
2022-09-10T11:08:48.392Z,14.00
2022-09-10T11:11:24.716Z,15.03
2022-09-10T11:13:58.453Z,15.30
2022-09-10T11:16:40.395Z,13.50
2022-09-10T11:19:16.746Z,13.83
2022-09-10T11:21:53.971Z,14.53
2022-09-10T11:24:31.910Z,14.13
2022-09-10T11:27:11.776Z,14.33
2022-09-10T11:29:46.025Z,15.30
2022-09-10T11:32:32.692Z,14.17
2022-09-10T11:35:13.005Z,15.93
2022-09-10T11:38:10.347Z,15.10
2022-09-10T11:40:47.111Z,16.30
2022-09-10T11:43:28.454Z,15.80
2022-09-10T11:46:02.628Z,14.97
2022-09-10T11:48:41.450Z,14.40
2022-09-10T11:51:18.549Z,15.97
2022-09-10T11:53:49.718Z,14.37
2022-09-10T11:56:37.822Z,14.43
2022-09-10T11:59:29.438Z,14.83
2022-09-10T12:02:26.007Z,14.30
2022-09-10T12:05:06.634Z,15.10
2022-09-10T12:07:46.895Z,14.27
2022-09-10T12:10:25.581Z,15.20
2022-09-10T12:12:56.315Z,13.30
2022-09-10T12:15:28.742Z,15.20
2022-09-10T12:18:02.499Z,15.47
2022-09-10T12:20:38.536Z,14.97
2022-09-10T12:23:09.826Z,15.63
2022-09-10T12:25:41.219Z,16.20
2022-09-10T12:28:51.300Z,16.17
2022-09-10T12:31:23.203Z,14.23
2022-09-10T12:34:09.485Z,15.10
2022-09-10T12:37:19.997Z,16.03
2022-09-10T12:40:13.385Z,16.17
2022-09-10T12:42:46.055Z,15.60
2022-09-10T12:45:36.921Z,15.67
2022-09-10T12:48:15.090Z,16.50
2022-09-10T12:50:54.006Z,15.83
2022-09-10T12:53:58.036Z,16.07
2022-09-10T12:56:51.167Z,16.40
2022-09-10T12:59:48.754Z,16.97
2022-09-10T13:02:31.403Z,15.90
2022-09-10T13:05:07.153Z,15.77
2022-09-10T13:07:41.087Z,16.07
2022-09-10T13:10:22.673Z,16.17
2022-09-10T13:12:57.950Z,16.10
2022-09-10T13:15:32.244Z,16.00
2022-09-10T13:18:31.815Z,15.27
2022-09-10T13:21:09.691Z,15.97
2022-09-10T13:23:52.521Z,15.30
2022-09-10T13:26:53.171Z,16.77
2022-09-10T13:29:35.734Z,14.93
2022-09-10T13:32:10.691Z,15.43
2022-09-10T13:35:10.762Z,15.40
2022-09-10T13:38:02.079Z,15.47
2022-09-10T13:40:48.199Z,15.53
2022-09-10T13:43:50.092Z,15.87
2022-09-10T13:46:33.959Z,16.20
2022-09-10T13:49:10.553Z,16.00
2022-09-10T13:51:48.530Z,15.43
2022-09-10T13:54:36.198Z,16.67
2022-09-10T13:57:14.363Z,16.27
2022-09-10T13:59:46.125Z,16.77
2022-09-10T14:02:20.398Z,16.23
2022-09-10T14:04:52.538Z,17.83
2022-09-10T14:07:29.274Z,16.03
2022-09-10T14:10:05.032Z,16.47
2022-09-10T14:12:38.171Z,15.47
2022-09-10T14:15:10.425Z,14.87
2022-09-10T14:17:46.781Z,16.20
2022-09-10T14:20:24.894Z,17.40
2022-09-10T14:23:00.930Z,16.20
2022-09-10T14:25:34.634Z,16.37
2022-09-10T14:28:27.765Z,16.13
2022-09-10T14:31:22.026Z,16.40
2022-09-10T14:33:54.935Z,17.10
2022-09-10T14:36:34.309Z,16.33
2022-09-10T14:39:08.894Z,16.77
2022-09-10T14:41:40.025Z,17.03
2022-09-10T14:44:31.893Z,16.80
2022-09-10T14:47:15.266Z,18.87
2022-09-10T14:49:47.985Z,17.20
2022-09-10T14:52:19.013Z,17.57
2022-09-10T14:54:49.779Z,17.77
2022-09-10T14:57:20.529Z,19.13
2022-09-10T14:59:55.292Z,17.20
2022-09-10T15:02:30.059Z,18.13
2022-09-10T15:05:02.471Z,17.53
2022-09-10T15:07:33.220Z,18.10
2022-09-10T15:10:03.987Z,19.30
2022-09-10T15:12:35.694Z,19.00
2022-09-10T15:15:07.071Z,19.43
2022-09-10T15:17:38.195Z,17.57
2022-09-10T15:20:14.835Z,18.47
2022-09-10T15:22:45.679Z,20.73
2022-09-10T15:25:38.177Z,18.57
2022-09-10T15:28:09.870Z,18.87
2022-09-10T15:30:41.123Z,19.07
2022-09-10T15:33:15.544Z,20.87
2022-09-10T15:35:48.096Z,19.30
2022-09-10T15:38:22.159Z,22.87
2022-09-10T15:40:54.089Z,22.07
2022-09-10T15:43:27.429Z,19.50
2022-09-10T15:45:58.250Z,19.90
2022-09-10T15:48:29.115Z,19.40
2022-09-10T15:51:04.481Z,19.77
2022-09-10T15:53:36.127Z,20.43
2022-09-10T15:56:08.506Z,19.57
2022-09-10T15:58:40.203Z,21.03
2022-09-10T16:01:13.840Z,20.53
2022-09-10T16:03:49.448Z,20.50
2022-09-10T16:06:22.305Z,19.40
2022-09-10T16:08:53.710Z,20.43
2022-09-10T16:11:24.469Z,19.60
2022-09-10T16:13:55.853Z,20.37
2022-09-10T16:16:28.449Z,20.60
2022-09-10T16:19:01.212Z,20.00
2022-09-10T16:21:35.623Z,20.20
2022-09-10T16:24:07.598Z,19.70
2022-09-10T16:26:40.083Z,19.60
2022-09-10T16:29:15.502Z,20.23
2022-09-10T16:31:46.997Z,19.07
2022-09-10T16:34:19.691Z,19.63
2022-09-10T16:36:53.896Z,19.63
2022-09-10T16:39:24.703Z,20.20
2022-09-10T16:41:56.752Z,19.07
2022-09-10T16:44:27.682Z,19.30
2022-09-10T16:47:00.104Z,21.40
2022-09-10T16:49:31.864Z,18.97
2022-09-10T16:52:05.755Z,19.50
2022-09-10T16:54:38.169Z,18.27
2022-09-10T16:57:08.978Z,20.30
2022-09-10T16:59:39.738Z,19.40
2022-09-10T17:02:12.783Z,18.60
2022-09-10T17:04:43.502Z,19.87
2022-09-10T17:07:15.906Z,18.93
2022-09-10T17:09:46.787Z,18.60
2022-09-10T17:12:17.568Z,18.20
2022-09-10T17:14:48.763Z,19.17
2022-09-10T17:17:19.557Z,17.73
2022-09-10T17:19:50.476Z,19.00
2022-09-10T17:22:22.914Z,18.63
2022-09-10T17:24:54.711Z,19.10
2022-09-10T17:27:25.794Z,18.37
2022-09-10T17:29:56.635Z,18.50
2022-09-10T17:32:27.395Z,20.93
2022-09-10T17:34:58.097Z,18.47
2022-09-10T17:37:30.510Z,19.73
2022-09-10T17:40:01.314Z,18.70
2022-09-10T17:42:32.087Z,19.60
2022-09-10T17:45:02.839Z,19.23
2022-09-10T17:47:33.893Z,19.13
2022-09-10T17:50:04.630Z,20.03
2022-09-10T17:52:37.057Z,19.63
2022-09-10T17:55:08.298Z,20.60
2022-09-10T17:57:39.047Z,20.27
2022-09-10T18:00:11.114Z,20.07
2022-09-10T18:02:42.123Z,22.43
2022-09-10T18:05:13.391Z,22.13
2022-09-10T18:07:47.000Z,23.07
2022-09-10T18:10:18.672Z,26.17
2022-09-10T18:12:49.418Z,31.60
2022-09-10T18:15:20.450Z,38.70
2022-09-10T18:17:51.811Z,38.00
2022-09-10T18:20:23.658Z,33.40
2022-09-10T18:22:56.103Z,28.40
2022-09-10T18:25:28.849Z,26.30
2022-09-10T18:27:59.836Z,25.83
2022-09-10T18:30:30.908Z,23.50
2022-09-10T18:33:01.836Z,22.50
2022-09-10T18:35:33.201Z,21.83
2022-09-10T18:38:05.633Z,23.37
2022-09-10T18:40:38.942Z,22.20
2022-09-10T18:43:09.837Z,23.23
2022-09-10T18:45:40.574Z,22.20
2022-09-10T18:48:11.352Z,23.27
2022-09-10T18:50:42.106Z,22.07
2022-09-10T18:53:15.226Z,23.07
2022-09-10T18:55:46.280Z,22.50
2022-09-10T18:58:17.111Z,22.63
2022-09-10T19:00:47.896Z,22.37
2022-09-10T19:03:18.705Z,24.10
2022-09-10T19:05:49.896Z,22.57
2022-09-10T19:08:22.561Z,23.77
2022-09-10T19:10:55.108Z,25.10
2022-09-10T19:13:26.019Z,25.53
2022-09-10T19:15:58.434Z,22.77
2022-09-10T19:18:29.400Z,23.70
2022-09-10T19:21:04.465Z,23.20
2022-09-10T19:23:40.556Z,24.07
2022-09-10T19:26:13.072Z,23.87
2022-09-10T19:28:44.193Z,24.53
2022-09-10T19:31:17.669Z,24.37
2022-09-10T19:33:49.171Z,23.70
2022-09-10T19:36:21.660Z,23.90
2022-09-10T19:38:54.085Z,24.60
2022-09-10T19:41:26.328Z,24.50
2022-09-10T19:43:57.854Z,22.60
2022-09-10T19:46:29.506Z,24.80
2022-09-10T19:49:01.558Z,23.10
2022-09-10T19:51:34.184Z,22.17
2022-09-10T19:54:07.422Z,23.70
2022-09-10T19:56:39.805Z,23.07
2022-09-10T19:59:11.055Z,23.50
2022-09-10T20:01:44.475Z,23.47
2022-09-10T20:04:16.320Z,22.17
2022-09-10T20:06:48.444Z,23.20
2022-09-10T20:09:20.995Z,22.60
2022-09-10T20:11:51.720Z,23.17
2022-09-10T20:14:22.525Z,23.77
2022-09-10T20:16:53.611Z,22.50
2022-09-10T20:19:24.372Z,22.17
2022-09-10T20:21:55.106Z,21.80
2022-09-10T20:24:29.266Z,22.97
2022-09-10T20:27:00.165Z,22.80
2022-09-10T20:29:33.693Z,22.83
2022-09-10T20:32:05.590Z,21.80
2022-09-10T20:34:37.553Z,21.40
2022-09-10T20:37:08.327Z,22.07
2022-09-10T20:39:43.007Z,22.47
2022-09-10T20:42:14.154Z,22.40
2022-09-10T20:44:44.947Z,23.37
2022-09-10T20:47:15.746Z,22.13
2022-09-10T20:49:46.847Z,22.63
2022-09-10T20:52:17.635Z,22.27
2022-09-10T20:54:50.553Z,22.20
2022-09-10T20:57:21.938Z,22.83
2022-09-10T20:59:52.729Z,23.27
2022-09-10T21:02:23.558Z,22.87
2022-09-10T21:04:54.468Z,23.93
2022-09-10T21:07:25.202Z,22.07
2022-09-10T21:09:57.713Z,23.80
2022-09-10T21:12:28.462Z,23.90
2022-09-10T21:14:59.268Z,22.53
2022-09-10T21:17:31.760Z,22.30
2022-09-10T21:20:03.954Z,21.07
2022-09-10T21:22:34.851Z,23.10
2022-09-10T21:25:08.227Z,23.17
2022-09-10T21:27:38.992Z,21.40
2022-09-10T21:30:10.636Z,23.40
2022-09-10T21:32:41.368Z,22.73
2022-09-10T21:35:13.158Z,24.67
2022-09-10T21:37:43.876Z,22.60
2022-09-10T21:40:16.547Z,24.17
2022-09-10T21:42:47.521Z,22.97
2022-09-10T21:45:22.308Z,23.03
2022-09-10T21:47:55.408Z,22.00
2022-09-10T21:50:26.240Z,21.97
2022-09-10T21:52:56.987Z,21.90
2022-09-10T21:55:30.411Z,23.03
2022-09-10T21:58:01.367Z,23.27
2022-09-10T22:00:32.272Z,22.10
2022-09-10T22:03:03.013Z,22.97
2022-09-10T22:05:33.921Z,22.00
2022-09-10T22:08:04.961Z,22.97
2022-09-10T22:10:37.383Z,22.37
2022-09-10T22:13:08.134Z,21.60
2022-09-10T22:15:42.034Z,20.80
2022-09-10T22:18:13.273Z,22.43
2022-09-10T22:20:44.054Z,21.87
2022-09-10T22:23:16.513Z,22.00
2022-09-10T22:25:48.906Z,21.13
2022-09-10T22:28:19.661Z,22.00
2022-09-10T22:30:50.417Z,22.90
2022-09-10T22:33:21.184Z,23.70
2022-09-10T22:35:51.937Z,23.37
2022-09-10T22:38:22.878Z,22.20
2022-09-10T22:40:55.262Z,21.57
2022-09-10T22:43:26.040Z,21.53
2022-09-10T22:45:56.769Z,21.90
2022-09-10T22:48:28.354Z,21.90
2022-09-10T22:51:00.030Z,21.97
2022-09-10T22:53:30.854Z,22.20
2022-09-10T22:56:03.758Z,21.73
2022-09-10T22:58:34.954Z,22.67
2022-09-10T23:01:09.753Z,22.27
2022-09-10T23:03:41.168Z,22.60
2022-09-10T23:06:13.645Z,22.63
2022-09-10T23:08:45.407Z,22.20
2022-09-10T23:11:19.888Z,21.10
2022-09-10T23:13:53.258Z,23.63
2022-09-10T23:16:25.830Z,22.60
2022-09-10T23:18:58.042Z,21.57
2022-09-10T23:21:30.391Z,22.20
2022-09-10T23:24:02.329Z,21.33
2022-09-10T23:26:34.911Z,22.80
2022-09-10T23:29:07.236Z,20.90
2022-09-10T23:31:39.753Z,22.93
2022-09-10T23:34:12.639Z,23.23
2022-09-10T23:36:44.775Z,22.10
2022-09-10T23:39:17.756Z,22.37
2022-09-10T23:41:50.419Z,22.73
2022-09-10T23:44:21.256Z,23.30
2022-09-10T23:46:52.039Z,22.00
2022-09-10T23:49:23.010Z,21.33
2022-09-10T23:51:54.018Z,24.13
2022-09-10T23:54:25.409Z,23.20
2022-09-10T23:56:57.905Z,21.40
2022-09-10T23:59:28.696Z,23.70
